Time;durP1;ratioP1;P1;durP2;ratioP2;P2;SDS_P1;SDS_P2;PMS_P1;PMS_P2;Temp;Humidity;BMP_temperature;BMP_pressure;BME280_temperature;BME280_humidity;BME280_pressure;Samples;Min_cycle;Max_cycle;Signal;HPM_P1;HPM_P2
2023/12/08 00:01:19;;;;;;;40.13;24.23;;;0.70;79.90;;;;;;5042251;28;20037;-72
2023/12/08 00:03:45;;;;;;;38.40;23.10;;;0.70;79.80;;;;;;5043692;28;21040;-73
2023/12/08 00:06:11;;;;;;;38.03;24.57;;;0.70;79.80;;;;;;5047194;28;20385;-73
2023/12/08 00:08:39;;;;;;;40.53;24.57;;;0.60;79.70;;;;;;5045317;28;20492;-73
2023/12/08 00:11:06;;;;;;;37.63;23.07;;;0.60;79.90;;;;;;5039144;28;20037;-73
2023/12/08 00:13:32;;;;;;;38.20;24.53;;;0.60;79.70;;;;;;5046387;28;20075;-72
2023/12/08 00:15:58;;;;;;;39.50;24.20;;;0.60;79.80;;;;;;5046342;28;20128;-73
2023/12/08 00:18:24;;;;;;;39.87;25.07;;;0.60;79.80;;;;;;5039306;28;20113;-72
2023/12/08 00:20:50;;;;;;;40.83;25.13;;;0.60;79.70;;;;;;5028329;28;20171;-73
2023/12/08 00:23:16;;;;;;;39.97;25.33;;;0.60;79.70;;;;;;5026930;28;20461;-72
2023/12/08 00:25:41;;;;;;;36.63;24.53;;;0.60;79.60;;;;;;5028437;28;20094;-75
2023/12/08 00:28:07;;;;;;;41.53;24.03;;;0.60;79.80;;;;;;5025919;28;20045;-73
2023/12/08 00:30:33;;;;;;;39.90;24.83;;;0.60;79.70;;;;;;5036545;28;20151;-73
2023/12/08 00:32:58;;;;;;;39.37;25.90;;;0.60;79.70;;;;;;5025174;28;20141;-72
2023/12/08 00:35:24;;;;;;;39.90;25.47;;;0.60;79.80;;;;;;5029725;28;20048;-73
2023/12/08 00:37:50;;;;;;;41.97;26.30;;;0.60;79.90;;;;;;5034098;28;20045;-74
2023/12/08 00:40:17;;;;;;;39.27;25.07;;;0.60;79.80;;;;;;5025588;28;20076;-72
2023/12/08 00:42:43;;;;;;;38.60;24.97;;;0.60;79.80;;;;;;5026100;28;20542;-73
2023/12/08 00:45:09;;;;;;;36.93;24.07;;;0.60;79.90;;;;;;5026771;28;20042;-72
2023/12/08 00:47:34;;;;;;;42.47;26.40;;;0.60;80.00;;;;;;5026589;28;20404;-74
2023/12/08 00:50:00;;;;;;;40.23;24.73;;;0.50;80.00;;;;;;5026534;28;20037;-72
2023/12/08 00:52:26;;;;;;;40.90;25.57;;;0.50;80.00;;;;;;5025478;28;20056;-70
2023/12/08 00:54:51;;;;;;;42.27;26.23;;;0.50;80.00;;;;;;5026715;28;20041;-73
2023/12/08 00:57:17;;;;;;;40.20;25.13;;;0.50;80.10;;;;;;5029436;28;20087;-72
2023/12/08 00:59:43;;;;;;;40.40;24.80;;;0.50;80.10;;;;;;5026536;28;20068;-72
2023/12/08 01:02:08;;;;;;;38.37;24.33;;;0.50;80.10;;;;;;5020138;28;20048;-70
2023/12/08 01:04:34;;;;;;;40.80;24.20;;;0.50;80.20;;;;;;5026081;28;20058;-71
2023/12/08 01:07:00;;;;;;;40.97;24.73;;;0.50;80.10;;;;;;5024084;28;20095;-73
2023/12/08 01:09:26;;;;;;;39.70;25.17;;;0.50;80.00;;;;;;5026153;28;20046;-70
2023/12/08 01:11:52;;;;;;;37.53;24.20;;;0.50;80.00;;;;;;5024137;28;20052;-73
2023/12/08 01:14:18;;;;;;;38.00;25.03;;;0.50;79.80;;;;;;5026461;28;20045;-73
2023/12/08 01:16:44;;;;;;;38.07;24.20;;;0.50;79.80;;;;;;5025293;28;20500;-73
2023/12/08 01:19:11;;;;;;;39.63;25.07;;;0.50;79.80;;;;;;5011683;28;20111;-72
2023/12/08 01:21:37;;;;;;;37.60;24.67;;;0.50;80.00;;;;;;5023946;28;20433;-73
2023/12/08 01:24:04;;;;;;;41.43;25.37;;;0.50;79.70;;;;;;5025288;28;20067;-72
2023/12/08 01:26:30;;;;;;;36.17;24.43;;;0.50;79.70;;;;;;5025657;28;20079;-73
2023/12/08 01:28:55;;;;;;;40.90;25.33;;;0.50;79.80;;;;;;5025094;28;20113;-74
2023/12/08 01:31:21;;;;;;;36.93;24.53;;;0.50;79.70;;;;;;5036162;28;20044;-73
2023/12/08 01:33:47;;;;;;;39.17;25.73;;;0.50;79.80;;;;;;5045660;28;20045;-74
2023/12/08 01:36:14;;;;;;;39.97;25.53;;;0.50;79.80;;;;;;5046015;28;20469;-73
2023/12/08 01:38:44;;;;;;;45.63;26.37;;;0.50;79.80;;;;;;5045837;28;20045;-73
2023/12/08 01:41:15;;;;;;;42.30;26.30;;;0.50;80.00;;;;;;5045169;28;20064;-73
2023/12/08 01:43:44;;;;;;;;;;;0.50;80.10;;;;;;5035666;28;20052;-73
2023/12/08 01:46:14;;;;;;;39.10;25.17;;;0.50;80.00;;;;;;5034114;28;20387;-73
2023/12/08 01:48:40;;;;;;;41.83;25.90;;;0.40;80.00;;;;;;5035847;28;20088;-74
2023/12/08 01:51:07;;;;;;;40.53;26.23;;;0.50;80.10;;;;;;5034418;28;20056;-73
2023/12/08 01:53:33;;;;;;;41.07;27.23;;;0.50;80.20;;;;;;5038563;28;20400;-70
2023/12/08 01:55:59;;;;;;;46.03;27.13;;;0.50;80.30;;;;;;5039104;28;20053;-71
2023/12/08 01:58:26;;;;;;;44.13;28.17;;;0.40;80.20;;;;;;5029970;28;20099;-70
2023/12/08 02:00:53;;;;;;;41.00;27.03;;;0.40;80.40;;;;;;5027794;28;20034;-72
2023/12/08 02:03:21;;;;;;;47.43;27.57;;;0.40;80.30;;;;;;5029823;28;20480;-70
2023/12/08 02:05:50;;;;;;;43.77;26.53;;;0.40;80.40;;;;;;5028836;28;20571;-71
2023/12/08 02:08:18;;;;;;;43.03;27.27;;;0.40;80.50;;;;;;5029164;28;20154;-70
2023/12/08 02:10:44;;;;;;;43.47;27.23;;;0.40;80.50;;;;;;5028396;28;20049;-70
2023/12/08 02:13:11;;;;;;;42.07;27.03;;;0.40;80.40;;;;;;5029780;28;20472;-71
2023/12/08 02:15:38;;;;;;;43.57;27.30;;;0.40;80.50;;;;;;5028777;28;20056;-70
2023/12/08 02:18:05;;;;;;;45.13;26.97;;;0.40;80.50;;;;;;5027807;28;20041;-71
2023/12/08 02:20:31;;;;;;;42.07;27.27;;;0.40;80.60;;;;;;5026780;28;20163;-73
2023/12/08 02:22:57;;;;;;;41.23;27.10;;;0.40;80.50;;;;;;5028820;28;20630;-70
2023/12/08 02:25:22;;;;;;;38.80;26.47;;;0.40;80.50;;;;;;5028050;28;20061;-70
2023/12/08 02:27:48;;;;;;;42.97;27.23;;;0.40;80.50;;;;;;5028702;28;20069;-72
2023/12/08 02:30:16;;;;;;;41.60;27.80;;;0.40;80.50;;;;;;5029849;28;20041;-71
2023/12/08 02:33:07;;;;;;;45.37;27.33;;;0.40;80.60;;;;;;5046886;28;20066;-72
2023/12/08 02:35:38;;;;;;;44.27;27.30;;;0.40;80.70;;;;;;5048215;28;20484;-72
2023/12/08 02:38:07;;;;;;;43.83;26.17;;;0.30;80.60;;;;;;5049039;28;20152;-71
2023/12/08 02:40:34;;;;;;;42.67;28.20;;;0.30;80.60;;;;;;5048352;28;20049;-72
2023/12/08 02:43:00;;;;;;;46.20;27.60;;;0.40;80.60;;;;;;5040553;28;20095;-71
2023/12/08 02:45:25;;;;;;;42.60;27.83;;;0.30;80.70;;;;;;5038938;28;20525;-71
2023/12/08 02:47:51;;;;;;;43.17;27.70;;;0.40;80.70;;;;;;5035616;28;20058;-73
2023/12/08 02:50:17;;;;;;;43.60;28.33;;;0.40;80.50;;;;;;5035404;28;20248;-71
2023/12/08 02:52:42;;;;;;;42.73;27.70;;;0.30;80.60;;;;;;5036794;28;20227;-71
2023/12/08 02:55:08;;;;;;;46.03;28.00;;;0.40;80.60;;;;;;5036476;28;20049;-72
2023/12/08 02:57:34;;;;;;;42.20;27.37;;;0.30;80.60;;;;;;5026596;28;20041;-74
2023/12/08 02:59:59;;;;;;;43.33;28.63;;;0.40;80.60;;;;;;5040622;28;20041;-70
2023/12/08 03:02:25;;;;;;;45.53;27.93;;;0.30;80.60;;;;;;5046028;28;20064;-71
2023/12/08 03:04:51;;;;;;;41.83;27.50;;;0.30;80.60;;;;;;5038734;28;20480;-70
2023/12/08 03:07:16;;;;;;;41.07;26.83;;;0.30;80.60;;;;;;5045282;28;20472;-72
2023/12/08 03:09:42;;;;;;;46.73;28.53;;;0.30;80.60;;;;;;5046145;28;20586;-71
2023/12/08 03:12:08;;;;;;;44.60;27.73;;;0.30;80.50;;;;;;5046859;28;20037;-73
2023/12/08 03:14:33;;;;;;;43.83;27.77;;;0.40;80.70;;;;;;5047112;28;20064;-71
2023/12/08 03:16:59;;;;;;;43.63;28.70;;;0.30;80.50;;;;;;5047122;28;20045;-71
2023/12/08 03:19:24;;;;;;;44.03;28.67;;;0.30;80.60;;;;;;5047959;28;20049;-70
2023/12/08 03:21:51;;;;;;;45.27;28.33;;;0.30;80.60;;;;;;5046353;28;20068;-73
2023/12/08 03:24:16;;;;;;;47.13;28.97;;;0.30;80.60;;;;;;5047462;28;20130;-71
2023/12/08 03:26:43;;;;;;;43.40;28.33;;;0.30;80.50;;;;;;5045107;28;20083;-72
2023/12/08 03:29:08;;;;;;;42.90;28.77;;;0.30;80.50;;;;;;5048510;28;20045;-70
2023/12/08 03:31:34;;;;;;;43.83;28.47;;;0.30;80.50;;;;;;5048300;28;20052;-70
2023/12/08 03:34:00;;;;;;;47.37;29.53;;;0.30;80.50;;;;;;5044867;28;20048;-70
2023/12/08 03:36:26;;;;;;;42.30;28.00;;;0.30;80.50;;;;;;5057039;28;20549;-70
2023/12/08 03:38:51;;;;;;;45.53;28.50;;;0.30;80.60;;;;;;5040215;28;20095;-70
2023/12/08 03:41:17;;;;;;;43.20;26.97;;;0.30;80.60;;;;;;5035827;28;20049;-70
2023/12/08 03:43:44;;;;;;;43.77;27.90;;;0.30;80.70;;;;;;5044640;28;20480;-73
2023/12/08 03:46:10;;;;;;;43.80;27.90;;;0.30;80.70;;;;;;5046409;28;20560;-72
2023/12/08 03:48:36;;;;;;;44.50;28.33;;;0.30;80.70;;;;;;5055492;28;20073;-71
2023/12/08 03:51:03;;;;;;;41.80;26.97;;;0.30;80.70;;;;;;5046700;28;20045;-70
2023/12/08 03:53:28;;;;;;;42.17;27.80;;;0.30;80.60;;;;;;5041882;28;20526;-71
2023/12/08 03:55:54;;;;;;;44.80;28.50;;;0.30;80.50;;;;;;5043871;28;20124;-70
2023/12/08 03:58:20;;;;;;;44.80;28.13;;;0.30;80.60;;;;;;5046621;28;20380;-71
2023/12/08 04:00:46;;;;;;;42.20;26.60;;;0.30;80.60;;;;;;5044920;28;20052;-73
2023/12/08 04:03:11;;;;;;;42.33;27.30;;;0.30;80.60;;;;;;5046855;28;20036;-70
2023/12/08 04:05:37;;;;;;;43.87;27.20;;;0.30;80.50;;;;;;5045757;28;20095;-70
2023/12/08 04:08:04;;;;;;;42.83;26.13;;;0.30;80.60;;;;;;5046919;28;20048;-71
2023/12/08 04:10:31;;;;;;;44.53;27.83;;;0.30;80.60;;;;;;5046462;28;20147;-70
2023/12/08 04:12:57;;;;;;;45.00;28.73;;;0.30;80.70;;;;;;5045802;28;20056;-70
2023/12/08 04:15:22;;;;;;;43.10;28.60;;;0.30;80.70;;;;;;5046121;28;20045;-71
2023/12/08 04:17:48;;;;;;;50.17;28.73;;;0.30;80.80;;;;;;5046726;28;20055;-73
2023/12/08 04:20:14;;;;;;;45.83;28.33;;;0.30;81.00;;;;;;5046087;28;20041;-70
2023/12/08 04:22:39;;;;;;;44.80;27.63;;;0.20;81.10;;;;;;5047219;28;20080;-70
2023/12/08 04:25:06;;;;;;;47.57;29.47;;;0.20;81.10;;;;;;5045672;28;20128;-71
2023/12/08 04:27:32;;;;;;;48.83;28.50;;;0.20;81.20;;;;;;5045876;28;20474;-73
2023/12/08 04:29:58;;;;;;;45.07;27.50;;;0.20;81.30;;;;;;5054981;28;20131;-71
2023/12/08 04:32:23;;;;;;;51.43;29.63;;;0.20;81.50;;;;;;5019111;28;20132;-71
2023/12/08 04:34:49;;;;;;;46.80;28.50;;;0.10;81.50;;;;;;5027386;28;20119;-72
2023/12/08 04:37:14;;;;;;;47.40;29.13;;;0.00;81.50;;;;;;5034759;28;20073;-71
2023/12/08 04:39:40;;;;;;;46.37;29.20;;;0.00;81.60;;;;;;5038659;28;20349;-71
2023/12/08 04:42:07;;;;;;;48.87;28.87;;;0.00;81.60;;;;;;5031208;28;20142;-70
2023/12/08 04:44:33;;;;;;;48.57;28.83;;;0.00;81.60;;;;;;5046896;28;20162;-70
2023/12/08 04:46:59;;;;;;;52.27;30.17;;;0.00;81.80;;;;;;5047227;28;20132;-70
2023/12/08 04:49:25;;;;;;;48.90;28.50;;;0.00;81.80;;;;;;5053618;28;20041;-70
2023/12/08 04:51:51;;;;;;;50.53;30.37;;;0.00;82.00;;;;;;5045367;28;20372;-70
2023/12/08 04:54:16;;;;;;;54.07;31.63;;;0.00;81.90;;;;;;5053708;28;20549;-70
2023/12/08 04:56:42;;;;;;;52.97;31.40;;;-0.10;82.00;;;;;;5045129;28;20045;-70
2023/12/08 04:59:09;;;;;;;58.10;32.37;;;-0.10;82.10;;;;;;5044220;28;20528;-70
2023/12/08 05:01:35;;;;;;;60.13;33.07;;;-0.10;82.20;;;;;;5042483;28;20063;-70
2023/12/08 05:04:02;;;;;;;61.53;33.67;;;-0.10;82.30;;;;;;5038969;28;20549;-71
2023/12/08 05:06:29;;;;;;;61.47;34.43;;;-0.10;82.40;;;;;;5026122;28;20128;-71
2023/12/08 05:08:55;;;;;;;60.70;34.47;;;-0.10;82.50;;;;;;5026253;28;20377;-70
2023/12/08 05:11:20;;;;;;;60.97;34.70;;;-0.10;82.60;;;;;;5038781;28;20544;-71
2023/12/08 05:13:46;;;;;;;63.43;35.20;;;-0.10;82.70;;;;;;5046035;28;20179;-70
2023/12/08 05:16:12;;;;;;;61.77;34.53;;;-0.20;82.80;;;;;;5037569;28;20049;-71
2023/12/08 05:18:38;;;;;;;64.57;35.33;;;-0.10;82.90;;;;;;5030364;28;20049;-70
2023/12/08 05:21:04;;;;;;;66.30;34.93;;;-0.20;83.00;;;;;;5032822;28;20132;-70
2023/12/08 05:23:30;;;;;;;65.13;36.07;;;-0.10;83.00;;;;;;5046347;28;20508;-72
2023/12/08 05:25:56;;;;;;;68.87;36.97;;;-0.20;83.10;;;;;;5047747;28;20344;-71
2023/12/08 05:28:21;;;;;;;71.10;36.57;;;-0.20;83.20;;;;;;5049736;28;20079;-70
2023/12/08 05:30:47;;;;;;;77.30;37.53;;;-0.20;83.30;;;;;;5058511;28;20448;-70
2023/12/08 05:33:13;;;;;;;76.53;38.57;;;-0.20;83.30;;;;;;5047187;28;20377;-70
2023/12/08 05:35:38;;;;;;;80.37;39.93;;;-0.10;83.50;;;;;;5030830;28;20072;-71
2023/12/08 05:38:04;;;;;;;78.57;38.37;;;-0.10;83.50;;;;;;5013449;28;20497;-70
2023/12/08 05:40:30;;;;;;;79.77;39.43;;;-0.20;83.70;;;;;;5018403;28;20058;-71
2023/12/08 05:42:55;;;;;;;78.93;39.13;;;-0.20;83.70;;;;;;5032555;28;20444;-71
2023/12/08 05:45:21;;;;;;;80.47;38.63;;;-0.10;83.90;;;;;;5045252;28;20056;-71
2023/12/08 05:47:47;;;;;;;77.63;39.43;;;-0.20;83.90;;;;;;5047977;28;20040;-71
2023/12/08 05:50:12;;;;;;;80.93;40.70;;;-0.20;83.90;;;;;;5044629;28;20504;-70
2023/12/08 05:52:38;;;;;;;79.53;40.57;;;-0.20;83.90;;;;;;5047832;28;20041;-70
2023/12/08 05:55:04;;;;;;;79.10;38.93;;;-0.20;83.90;;;;;;5046104;28;20067;-72
2023/12/08 05:57:30;;;;;;;87.23;39.40;;;-0.20;83.90;;;;;;5046892;28;20102;-70
2023/12/08 05:59:55;;;;;;;88.53;38.43;;;-0.20;83.90;;;;;;5037519;28;20045;-71
2023/12/08 06:02:21;;;;;;;80.87;39.90;;;-0.20;83.90;;;;;;5045609;28;20068;-72
2023/12/08 06:04:47;;;;;;;85.87;39.10;;;-0.20;83.90;;;;;;5046546;28;20095;-72
2023/12/08 06:07:13;;;;;;;91.10;39.73;;;-0.20;83.90;;;;;;5045934;28;20052;-71
2023/12/08 06:09:38;;;;;;;84.20;41.63;;;-0.20;84.00;;;;;;5046895;28;20545;-71
2023/12/08 06:12:05;;;;;;;91.63;42.30;;;-0.30;84.00;;;;;;5040088;28;20037;-71
2023/12/08 06:14:30;;;;;;;97.07;41.63;;;-0.20;84.10;;;;;;5037537;28;20053;-72
2023/12/08 06:16:56;;;;;;;95.00;46.23;;;-0.30;84.20;;;;;;5045221;28;20045;-72
2023/12/08 06:19:21;;;;;;;102.67;43.97;;;-0.30;84.30;;;;;;5045170;28;20095;-71
2023/12/08 06:21:47;;;;;;;102.90;44.97;;;-0.20;84.40;;;;;;5046052;28;20063;-71
2023/12/08 06:24:13;;;;;;;99.47;43.53;;;-0.30;84.60;;;;;;5045803;28;20068;-73
2023/12/08 06:26:38;;;;;;;94.80;40.63;;;-0.30;84.50;;;;;;5043884;28;20128;-71
2023/12/08 06:29:04;;;;;;;104.47;54.37;;;-0.30;84.70;;;;;;5048745;28;20076;-71
2023/12/08 06:31:31;;;;;;;100.23;41.83;;;-0.30;84.60;;;;;;5033089;28;20091;-71
2023/12/08 06:33:56;;;;;;;104.27;42.57;;;-0.30;84.70;;;;;;5041425;28;20041;-71
2023/12/08 06:36:22;;;;;;;109.33;44.10;;;-0.30;84.70;;;;;;5034096;28;20046;-71
2023/12/08 06:38:48;;;;;;;105.20;43.40;;;-0.30;84.70;;;;;;5026815;28;20461;-73
2023/12/08 06:41:13;;;;;;;110.57;44.20;;;-0.40;84.80;;;;;;5025183;28;20559;-72
2023/12/08 06:43:39;;;;;;;98.80;41.60;;;-0.40;84.80;;;;;;5028570;28;20046;-71
2023/12/08 06:46:05;;;;;;;113.83;43.40;;;-0.40;84.90;;;;;;5028171;28;20081;-71
2023/12/08 06:48:30;;;;;;;105.27;42.30;;;-0.40;84.90;;;;;;5028794;28;20100;-72
2023/12/08 06:50:56;;;;;;;111.10;42.80;;;-0.40;85.00;;;;;;5027317;28;20498;-72
2023/12/08 06:53:22;;;;;;;108.03;44.17;;;-0.40;85.00;;;;;;5029185;28;20344;-71
2023/12/08 06:55:47;;;;;;;104.57;42.67;;;-0.40;85.00;;;;;;5028578;28;20053;-71
2023/12/08 06:58:13;;;;;;;102.10;42.77;;;-0.40;85.00;;;;;;5028890;28;20136;-71
2023/12/08 07:00:38;;;;;;;97.53;42.83;;;-0.40;85.00;;;;;;5032686;28;20128;-72
2023/12/08 07:03:05;;;;;;;114.53;44.27;;;-0.40;85.00;;;;;;5026480;28;20052;-71
2023/12/08 07:05:31;;;;;;;114.97;46.40;;;-0.40;85.10;;;;;;5027698;28;20049;-72
2023/12/08 07:07:57;;;;;;;121.60;45.27;;;-0.40;85.10;;;;;;5027476;28;20369;-72
2023/12/08 07:10:23;;;;;;;120.43;45.87;;;-0.40;85.00;;;;;;5025198;28;20168;-71
2023/12/08 07:12:49;;;;;;;110.73;45.57;;;-0.50;85.20;;;;;;5027616;28;20092;-72
2023/12/08 07:15:14;;;;;;;112.73;46.37;;;-0.40;85.20;;;;;;5027008;28;20049;-72
2023/12/08 07:17:40;;;;;;;107.90;48.27;;;-0.50;85.20;;;;;;5027689;28;20466;-72
2023/12/08 07:20:09;;;;;;;108.10;42.77;;;-0.40;85.20;;;;;;5026574;28;20041;-72
2023/12/08 07:22:35;;;;;;;82.27;41.60;;;-0.40;85.30;;;;;;5025122;28;20119;-72
2023/12/08 07:25:04;;;;;;;84.13;42.13;;;-0.40;85.30;;;;;;5025774;28;20483;-74
2023/12/08 07:27:31;;;;;;;83.47;40.70;;;-0.40;85.40;;;;;;5026994;28;20648;-72
2023/12/08 07:29:58;;;;;;;84.70;44.00;;;-0.40;85.40;;;;;;5024659;28;20058;-71
2023/12/08 07:32:24;;;;;;;88.57;44.63;;;-0.40;85.40;;;;;;5017640;28;20049;-72
2023/12/08 07:34:50;;;;;;;87.70;45.57;;;-0.40;85.50;;;;;;5018443;28;20045;-69
2023/12/08 07:37:16;;;;;;;86.97;46.93;;;-0.40;85.50;;;;;;5009867;28;20037;-72
2023/12/08 07:39:42;;;;;;;90.60;45.87;;;-0.30;85.50;;;;;;5011153;28;20061;-72
2023/12/08 07:42:07;;;;;;;93.83;47.37;;;-0.30;85.70;;;;;;5008932;28;20382;-72
2023/12/08 07:44:34;;;;;;;91.77;47.23;;;-0.30;85.70;;;;;;5008975;28;20057;-73
2023/12/08 07:47:00;;;;;;;83.30;43.77;;;-0.30;85.70;;;;;;5006141;28;20050;-72
2023/12/08 07:49:26;;;;;;;89.17;46.10;;;-0.30;85.60;;;;;;5010121;28;20465;-72
2023/12/08 07:51:52;;;;;;;93.23;46.53;;;-0.30;85.70;;;;;;5007271;28;20056;-73
2023/12/08 07:54:18;;;;;;;90.40;47.33;;;-0.30;85.70;;;;;;5009895;28;20057;-72
2023/12/08 07:56:43;;;;;;;94.10;47.37;;;-0.30;85.60;;;;;;5009488;28;20103;-72
2023/12/08 07:59:09;;;;;;;85.00;44.33;;;-0.30;85.70;;;;;;5008674;28;20049;-72
2023/12/08 08:01:36;;;;;;;112.00;59.77;;;-0.30;85.70;;;;;;5012483;28;20061;-73
2023/12/08 08:04:01;;;;;;;95.33;49.07;;;-0.30;85.70;;;;;;5010740;28;20412;-72
2023/12/08 08:06:27;;;;;;;89.70;43.80;;;-0.30;85.70;;;;;;5010978;28;20381;-72
2023/12/08 08:08:54;;;;;;;90.53;47.53;;;-0.30;85.70;;;;;;5011238;28;20053;-72
2023/12/08 08:11:20;;;;;;;86.30;43.20;;;-0.30;85.80;;;;;;5006938;28;20128;-71
2023/12/08 08:13:46;;;;;;;85.53;44.97;;;-0.30;85.70;;;;;;5012780;28;20103;-72
2023/12/08 08:16:11;;;;;;;89.63;46.33;;;-0.30;85.80;;;;;;5011283;28;20053;-72
2023/12/08 08:18:37;;;;;;;87.37;45.70;;;-0.20;85.80;;;;;;5011485;28;20132;-72
2023/12/08 08:21:04;;;;;;;90.97;46.60;;;-0.20;85.80;;;;;;5006918;28;20057;-71
2023/12/08 08:23:29;;;;;;;83.57;45.13;;;-0.20;85.80;;;;;;5009271;28;20564;-72
2023/12/08 08:25:55;;;;;;;92.53;45.87;;;-0.20;85.80;;;;;;5003358;28;20061;-73
2023/12/08 08:28:21;;;;;;;90.57;45.40;;;-0.20;85.80;;;;;;5007678;28;20469;-72
2023/12/08 08:30:46;;;;;;;87.40;46.10;;;-0.20;85.80;;;;;;5008557;28;20053;-71
2023/12/08 08:33:12;;;;;;;97.93;48.40;;;-0.20;85.90;;;;;;5011378;28;20061;-73
2023/12/08 08:35:40;;;;;;;92.83;48.00;;;-0.20;85.90;;;;;;5011731;28;20106;-73
2023/12/08 08:38:06;;;;;;;90.27;46.77;;;-0.20;85.90;;;;;;5011635;28;20145;-73
2023/12/08 08:40:32;;;;;;;89.60;46.40;;;-0.20;85.80;;;;;;5011925;28;20060;-73
2023/12/08 08:42:58;;;;;;;95.00;46.87;;;-0.20;85.80;;;;;;5010243;28;20041;-73
2023/12/08 08:45:24;;;;;;;95.93;45.90;;;-0.20;85.90;;;;;;5010799;28;20421;-74
2023/12/08 08:47:49;;;;;;;97.90;47.20;;;-0.20;85.90;;;;;;5012243;28;20388;-73
2023/12/08 08:50:15;;;;;;;96.73;48.47;;;-0.20;86.00;;;;;;5009318;28;20053;-73
2023/12/08 08:52:41;;;;;;;96.60;48.70;;;-0.10;85.90;;;;;;5009706;28;20046;-73
2023/12/08 08:55:07;;;;;;;94.13;48.17;;;-0.10;85.90;;;;;;5010342;28;20049;-73
2023/12/08 08:57:33;;;;;;;96.47;47.50;;;-0.10;85.90;;;;;;5012147;28;20560;-73
2023/12/08 08:59:59;;;;;;;95.37;48.87;;;-0.10;86.00;;;;;;5012365;28;20064;-73
2023/12/08 09:02:24;;;;;;;92.27;45.90;;;-0.10;86.00;;;;;;5014738;28;20049;-72
2023/12/08 09:04:50;;;;;;;88.97;46.33;;;-0.10;86.00;;;;;;5015835;28;20057;-73
2023/12/08 09:07:17;;;;;;;93.60;47.80;;;-0.10;86.10;;;;;;5015143;28;20558;-74
2023/12/08 09:09:43;;;;;;;97.20;49.53;;;-0.10;86.00;;;;;;5016368;28;20139;-73
2023/12/08 09:12:09;;;;;;;93.33;48.33;;;-0.10;85.90;;;;;;5018873;28;20515;-73
2023/12/08 09:14:35;;;;;;;99.03;50.47;;;-0.10;86.10;;;;;;5021844;28;20056;-72
2023/12/08 09:17:05;;;;;;;96.03;49.47;;;-0.10;86.00;;;;;;5018071;28;20049;-73
2023/12/08 09:19:31;;;;;;;93.67;46.70;;;-0.10;86.10;;;;;;5015124;28;20104;-73
2023/12/08 09:21:57;;;;;;;93.70;48.93;;;-0.10;86.10;;;;;;5014009;28;20451;-73
2023/12/08 09:24:25;;;;;;;98.17;49.43;;;0.00;86.00;;;;;;5013706;28;20029;-73
2023/12/08 09:26:52;;;;;;;94.33;47.27;;;0.00;86.00;;;;;;5014303;28;20046;-73
2023/12/08 09:29:18;;;;;;;94.70;49.80;;;0.00;86.10;;;;;;5014755;28;20053;-73
2023/12/08 09:31:44;;;;;;;94.37;48.23;;;0.00;86.10;;;;;;5012513;28;20091;-73
2023/12/08 09:34:10;;;;;;;97.83;48.27;;;0.00;86.10;;;;;;5008874;28;20414;-72
2023/12/08 09:36:36;;;;;;;97.07;47.90;;;0.00;86.10;;;;;;5012921;28;20061;-74
2023/12/08 09:39:04;;;;;;;92.53;48.30;;;0.00;86.20;;;;;;5018848;28;20045;-74
2023/12/08 09:41:30;;;;;;;97.80;48.63;;;0.00;86.10;;;;;;5019892;28;21139;-73
2023/12/08 09:44:13;;;;;;;90.57;48.20;;;0.00;86.10;;;;;;5013658;28;20404;-74
2023/12/08 09:46:43;;;;;;;100.70;59.00;;;0.00;86.10;;;;;;5012182;28;20507;-73
2023/12/08 09:49:22;;;;;;;93.07;49.05;;;0.00;86.20;;;;;;5011099;28;20068;-73
2023/12/08 09:51:49;;;;;;;101.57;49.93;;;0.00;86.10;;;;;;5014175;28;20422;-73
2023/12/08 09:54:15;;;;;;;92.03;49.00;;;0.10;86.20;;;;;;5014564;28;20214;-73
2023/12/08 09:56:41;;;;;;;97.37;48.60;;;0.10;86.10;;;;;;5014383;28;20045;-73
2023/12/08 09:59:08;;;;;;;94.80;49.43;;;0.00;86.20;;;;;;5013457;28;20061;-74
2023/12/08 10:01:34;;;;;;;97.23;50.13;;;0.10;86.10;;;;;;5013309;28;20042;-73
2023/12/08 10:03:59;;;;;;;105.53;52.23;;;0.10;86.20;;;;;;5014588;28;20049;-73
2023/12/08 10:06:28;;;;;;;91.97;48.10;;;0.10;86.20;;;;;;5014966;28;20049;-72
2023/12/08 10:08:56;;;;;;;99.73;50.23;;;0.10;86.20;;;;;;5011143;28;20058;-73
2023/12/08 10:11:23;;;;;;;93.50;51.17;;;0.20;86.20;;;;;;5011387;28;20064;-73
2023/12/08 10:13:50;;;;;;;104.43;51.17;;;0.20;86.20;;;;;;5013153;28;20064;-73
2023/12/08 10:16:15;;;;;;;101.00;51.20;;;0.20;86.20;;;;;;5010712;28;20102;-72
2023/12/08 10:18:41;;;;;;;99.93;50.73;;;0.20;86.20;;;;;;5011681;28;20263;-73
2023/12/08 10:21:15;;;;;;;96.43;49.90;;;0.20;86.20;;;;;;5010294;28;20057;-73
2023/12/08 10:23:42;;;;;;;95.27;50.93;;;0.30;86.30;;;;;;5011397;28;20057;-74
2023/12/08 10:26:08;;;;;;;105.23;52.83;;;0.30;86.30;;;;;;5010186;28;20037;-74
2023/12/08 10:28:34;;;;;;;102.10;52.60;;;0.30;86.30;;;;;;5011873;28;20139;-73
2023/12/08 10:31:00;;;;;;;92.80;48.73;;;0.30;86.30;;;;;;5008746;28;20079;-74
2023/12/08 10:33:26;;;;;;;101.30;50.87;;;0.30;86.30;;;;;;4993120;28;20088;-73
2023/12/08 10:35:52;;;;;;;99.50;50.30;;;0.30;86.30;;;;;;5008457;28;20054;-73
2023/12/08 10:38:21;;;;;;;101.23;51.30;;;0.30;86.30;;;;;;5011055;28;20068;-73
2023/12/08 10:40:52;;;;;;;92.30;50.03;;;0.40;86.30;;;;;;5009754;28;20091;-73
2023/12/08 10:43:22;;;;;;;;;;;0.40;86.40;;;;;;5011486;28;20053;-72
2023/12/08 10:45:52;;;;;;;93.83;48.23;;;0.40;86.30;;;;;;5010138;28;19936;-74
2023/12/08 10:48:21;;;;;;;99.50;50.80;;;0.40;86.30;;;;;;5012694;28;20065;-73
2023/12/08 10:50:50;;;;;;;111.77;50.97;;;0.40;86.40;;;;;;5012451;28;20072;-74
2023/12/08 10:53:18;;;;;;;96.53;50.47;;;0.40;86.40;;;;;;5010947;28;20448;-73
2023/12/08 10:55:49;;;;;;;110.50;53.60;;;0.40;86.50;;;;;;5011431;28;20089;-74
2023/12/08 10:58:19;;;;;;;85.53;42.33;;;0.50;86.40;;;;;;5011600;28;20091;-74
2023/12/08 11:00:46;;;;;;;103.43;50.77;;;0.50;86.50;;;;;;5011096;28;20334;-73
2023/12/08 11:03:15;;;;;;;98.57;50.97;;;0.50;86.40;;;;;;5013853;28;20404;-73
2023/12/08 11:05:48;;;;;;;114.73;53.00;;;0.50;86.40;;;;;;5011823;28;20649;-73
2023/12/08 11:08:17;;;;;;;100.97;52.13;;;0.50;86.40;;;;;;5011029;28;20053;-72
2023/12/08 11:10:51;;;;;;;107.23;51.47;;;0.50;86.40;;;;;;5008942;28;20408;-74
2023/12/08 11:13:30;;;;;;;105.30;51.83;;;0.50;86.50;;;;;;5011103;28;20045;-72
2023/12/08 11:16:05;;;;;;;103.87;53.73;;;0.60;86.50;;;;;;5009694;28;20045;-73
2023/12/08 11:18:35;;;;;;;105.10;51.17;;;0.60;86.40;;;;;;5011157;28;20058;-72
2023/12/08 11:21:06;;;;;;;102.17;50.97;;;0.60;86.50;;;;;;5009378;28;21225;-72
2023/12/08 11:23:33;;;;;;;119.87;55.43;;;0.60;86.50;;;;;;5010419;28;20049;-73
2023/12/08 11:26:28;;;;;;;104.57;53.43;;;0.60;86.50;;;;;;5008148;28;20053;-73
2023/12/08 11:28:59;;;;;;;99.17;50.90;;;0.60;86.50;;;;;;4987334;28;20050;-69
2023/12/08 11:31:39;;;;;;;107.38;52.60;;;0.60;86.50;;;;;;5008474;28;20084;-73
2023/12/08 11:34:07;;;;;;;113.87;53.70;;;0.60;86.50;;;;;;5009783;28;20038;-73
2023/12/08 11:36:33;;;;;;;110.13;53.73;;;0.60;86.50;;;;;;4991076;28;20512;-74
2023/12/08 11:39:19;;;;;;;129.23;56.07;;;0.60;86.50;;;;;;5007321;28;20053;-73
2023/12/08 11:41:46;;;;;;;117.63;52.73;;;0.60;86.60;;;;;;5007857;28;20123;-73
2023/12/08 11:44:12;;;;;;;125.37;56.63;;;0.60;86.60;;;;;;4991509;28;20048;-72
2023/12/08 11:46:38;;;;;;;147.50;78.33;;;0.60;86.60;;;;;;5008149;28;20053;-73
2023/12/08 11:49:04;;;;;;;118.03;55.57;;;0.60;86.60;;;;;;5010555;28;20049;-73
2023/12/08 11:51:29;;;;;;;135.20;59.17;;;0.60;86.60;;;;;;4990756;28;20069;-73
2023/12/08 11:53:55;;;;;;;134.13;58.70;;;0.60;86.60;;;;;;5010547;28;20037;-73
2023/12/08 11:56:48;;;;;;;141.90;56.27;;;0.60;86.60;;;;;;5011142;28;20069;-73
2023/12/08 11:59:21;;;;;;;133.50;57.60;;;0.70;86.70;;;;;;5027238;28;20522;-74
2023/12/08 12:01:48;;;;;;;130.37;57.37;;;0.70;86.70;;;;;;5032930;28;20082;-73
2023/12/08 12:04:13;;;;;;;140.07;58.27;;;0.70;86.70;;;;;;5032825;28;20130;-73
2023/12/08 12:06:42;;;;;;;153.77;61.17;;;0.70;86.70;;;;;;5030281;28;20500;-73
2023/12/08 12:09:08;;;;;;;146.60;61.00;;;0.70;86.70;;;;;;5017639;28;20395;-73
2023/12/08 12:11:39;;;;;;;150.90;62.27;;;0.80;86.70;;;;;;5010731;28;20487;-72
2023/12/08 12:14:09;;;;;;;166.83;63.67;;;0.70;86.70;;;;;;5008236;28;20049;-73
2023/12/08 12:16:35;;;;;;;146.27;62.17;;;0.70;86.70;;;;;;5006591;28;20049;-72
2023/12/08 12:19:00;;;;;;;148.60;61.07;;;0.80;86.60;;;;;;5005259;28;20544;-72
2023/12/08 12:21:26;;;;;;;155.67;62.93;;;0.80;86.80;;;;;;5007896;28;20415;-73
2023/12/08 12:23:53;;;;;;;165.57;63.80;;;0.80;86.70;;;;;;5010397;28;20057;-73
2023/12/08 12:26:20;;;;;;;150.87;62.80;;;0.80;86.70;;;;;;5014908;28;20041;-72
2023/12/08 12:28:47;;;;;;;162.50;65.47;;;0.80;86.70;;;;;;5012879;28;20372;-72